Time;durP1;ratioP1;P1;durP2;ratioP2;P2;SDS_P1;SDS_P2;PMS_P1;PMS_P2;Temp;Humidity;BMP_temperature;BMP_pressure;BME280_temperature;BME280_humidity;BME280_pressure;Samples;Min_cycle;Max_cycle;Signal;HPM_P1;HPM_P2
2022/05/27 00:01:29;;;;;;;;;;;;;;;20.39;57.34;102021.16;7283736;19;154541;-54
2022/05/27 00:03:59;;;;;;;;;;;;;;;20.39;57.24;102012.75;7288085;19;152365;-53
2022/05/27 00:06:27;;;;;;;;;;;;;;;20.36;57.19;102013.28;7287127;19;153987;-53
2022/05/27 00:08:53;;;;;;;;;;;;;;;20.36;57.10;102021.72;7287919;19;154261;-54
2022/05/27 00:11:22;;;;;;;;;;;;;;;20.38;57.29;102017.50;7289079;19;151923;-54
2022/05/27 00:13:50;;;;;;;;;;;;;;;20.36;57.47;102016.09;7287130;19;153160;-55
2022/05/27 00:16:17;;;;;;;;;;;;;;;20.36;57.36;102016.09;7288480;19;153280;-54
2022/05/27 00:18:44;;;;;;;;;;;;;;;20.33;57.64;102011.06;7295808;19;151888;-54
2022/05/27 00:21:12;;;;;;;;;;;;;;;20.33;57.74;102011.06;7283655;19;154168;-53
2022/05/27 00:23:39;;;;;;;;;;;;;;;20.33;57.68;102013.84;7288049;19;151486;-53
2022/05/27 00:26:06;;;;;;;;;;;;;;;20.32;57.49;102007.41;7288267;19;152835;-53
2022/05/27 00:28:33;;;;;;;;;;;;;;;20.36;57.52;102007.66;7284789;19;154148;-54
2022/05/27 00:31:00;;;;;;;;;;;;;;;20.34;57.60;102021.16;7289028;19;151911;-54
2022/05/27 00:33:27;;;;;;;;;;;;;;;20.35;57.92;102008.81;7288602;19;152965;-53
2022/05/27 00:35:53;;;;;;;;;;;;;;;20.34;57.75;102009.94;7287041;19;154003;-53
2022/05/27 00:38:20;;;;;;;;;;;;;;;20.32;57.86;102007.41;7287876;19;151648;-53
2022/05/27 00:40:49;;;;;;;;;;;;;;;20.32;58.03;102012.16;7290597;19;151973;-53
2022/05/27 00:43:16;;;;;;;;;;;;;;;20.32;57.95;102012.16;7288200;19;152106;-54
2022/05/27 00:45:45;;;;;;;;;;;;;;;20.31;58.19;102004.88;7287355;19;152528;-54
2022/05/27 00:48:15;;;;;;;;;;;;;;;20.29;58.11;102004.28;7285568;19;153608;-53
2022/05/27 00:50:44;;;;;;;;;;;;;;;20.34;58.30;102005.16;7288000;19;152196;-54
2022/05/27 00:53:13;;;;;;;;;;;;;;;20.35;58.68;101994.78;7288683;19;154495;-53
2022/05/27 00:55:43;;;;;;;;;;;;;;;20.37;58.21;102000.94;7286254;19;154082;-53
2022/05/27 00:58:18;;;;;;;;;;;;;;;20.38;58.13;101997.88;7288009;19;151696;-54
2022/05/27 01:00:46;;;;;;;;;;;;;;;20.40;58.20;101995.59;7284699;19;153727;-53
2022/05/27 01:03:14;;;;;;;;;;;;;;;20.38;57.89;102002.63;7294930;19;153543;-53
2022/05/27 01:05:42;;;;;;;;;;;;;;;20.35;58.21;102001.22;7286429;19;152966;-54
2022/05/27 01:08:11;;;;;;;;;;;;;;;20.37;58.54;102006.56;7285557;19;153447;-53
2022/05/27 01:10:52;;;;;;;;;;;;;;;20.37;58.44;101993.38;7283995;19;151914;-53
2022/05/27 01:13:24;;;;;;;;;;;;;;;20.37;58.42;101998.13;7285806;19;153514;-53
2022/05/27 01:15:55;;;;;;;;;;;;;;;20.45;58.29;102000.38;7287248;19;154140;-54
2022/05/27 01:20:18;;;;;;;;;;;;;;;20.48;58.53;101994.22;7285675;19;152018;-53
2022/05/27 01:21:17;;;;;;;;;;;;;;;20.47;58.26;102002.91;7284560;19;152755;-53
2022/05/27 01:24:02;;;;;;;;;;;;;;;20.44;58.39;102009.09;7285705;19;153521;-53
2022/05/27 01:26:29;;;;;;;;;;;;;;;20.49;58.60;102003.47;7295638;19;151467;-53
2022/05/27 01:29:06;;;;;;;;;;;;;;;20.40;58.37;102005.97;7285839;19;153511;-54
2022/05/27 01:31:40;;;;;;;;;;;;;;;20.44;58.68;102006.28;7287776;19;151789;-53
2022/05/27 01:34:19;;;;;;;;;;;;;;;20.44;58.49;102004.31;7286988;19;152727;-54
2022/05/27 01:36:55;;;;;;;;;;;;;;;20.42;58.58;102003.75;7285522;19;153332;-54
2022/05/27 01:39:29;;;;;;;;;;;;;;;20.38;58.96;102000.66;7287764;19;151812;-54
2022/05/27 01:42:00;;;;;;;;;;;;;;;20.43;59.20;102002.63;7287481;19;154163;-54
2022/05/27 01:44:31;;;;;;;;;;;;;;;20.39;58.58;102005.16;7285830;19;154399;-54
2022/05/27 01:47:00;;;;;;;;;;;;;;;20.35;58.95;102006.81;7293278;19;152007;-54
2022/05/27 01:49:36;;;;;;;;;;;;;;;20.34;58.82;102009.94;7287146;19;153509;-52
2022/05/27 01:52:03;;;;;;;;;;;;;;;20.36;58.86;102008.50;7287196;19;151931;-54
2022/05/27 01:54:40;;;;;;;;;;;;;;;20.34;59.03;102007.97;7286946;19;153352;-53
2022/05/27 01:57:11;;;;;;;;;;;;;;;20.34;58.99;102015.56;7283929;19;154139;-53
2022/05/27 01:59:48;;;;;;;;;;;;;;;20.35;58.97;102008.81;7287079;19;151502;-54
2022/05/27 02:02:17;;;;;;;;;;;;;;;20.33;59.02;102013.84;7282346;19;152876;-52
2022/05/27 02:04:47;;;;;;;;;;;;;;;20.33;59.19;102013.84;7283550;19;154045;-53
2022/05/27 02:07:17;;;;;;;;;;;;;;;20.38;59.27;102019.47;7286144;19;152369;-54
2022/05/27 02:09:47;;;;;;;;;;;;;;;20.40;59.19;102017.22;7293145;19;152698;-54
2022/05/27 02:12:20;;;;;;;;;;;;;;;20.36;58.89;102008.50;7287351;19;151615;-53
2022/05/27 02:14:50;;;;;;;;;;;;;;;20.38;59.16;102009.09;7285678;19;152556;-53
2022/05/27 02:17:21;;;;;;;;;;;;;;;20.35;59.18;102006.81;7286723;19;154244;-54
2022/05/27 02:19:48;;;;;;;;;;;;;;;20.37;59.53;102014.97;7297686;19;151864;-53
2022/05/27 02:22:19;;;;;;;;;;;;;;;20.38;59.08;102025.09;7299038;19;153443;-54
2022/05/27 02:24:50;;;;;;;;;;;;;;;20.37;59.54;102014.97;7296251;19;153241;-54
2022/05/27 02:27:20;;;;;;;;;;;;;;;20.31;59.61;102022.56;7300346;19;151800;-54
2022/05/27 02:29:50;;;;;;;;;;;;;;;20.32;59.27;102017.78;7300214;19;153418;-52
2022/05/27 02:32:28;;;;;;;;;;;;;;;20.34;59.50;102012.75;7304812;19;154532;-53
2022/05/27 02:37:33;;;;;;;;;;;;;;;20.38;59.37;102011.06;7298605;19;154117;-53
2022/05/27 02:40:02;;;;;;;;;;;;;;;20.35;59.26;102011.63;7298937;19;151818;-54
2022/05/27 02:42:29;;;;;;;;;;;;;;;20.32;59.54;102009.34;7299716;19;153605;-53
2022/05/27 02:44:56;;;;;;;;;;;;;;;20.34;59.79;102016.41;7298190;19;154134;-54
2022/05/27 02:47:34;;;;;;;;;;;;;;;20.32;59.71;102014.97;7299317;19;151747;-53
2022/05/27 02:50:10;;;;;;;;;;;;;;;20.33;59.46;102016.66;7298147;19;153511;-54
2022/05/27 02:52:46;;;;;;;;;;;;;;;20.32;59.95;102021.44;7299067;19;153351;-54
2022/05/27 02:55:16;;;;;;;;;;;;;;;20.34;59.75;102015.56;7307213;19;152016;-53
2022/05/27 02:57:45;;;;;;;;;;;;;;;20.35;59.70;102006.00;7296783;19;154097;-54
2022/05/27 03:00:14;;;;;;;;;;;;;;;20.38;59.56;102013.84;7298463;19;151679;-53
2022/05/27 03:02:41;;;;;;;;;;;;;;;20.45;59.54;102008.78;7296353;19;153688;-53
2022/05/27 03:05:09;;;;;;;;;;;;;;;20.39;59.15;102002.34;7298955;19;153475;-52
2022/05/27 03:07:36;;;;;;;;;;;;;;;20.40;58.99;102005.97;7299145;19;151864;-53
2022/05/27 03:10:12;;;;;;;;;;;;;;;20.37;59.26;102006.56;7298596;19;152826;-54
2022/05/27 03:12:56;;;;;;;;;;;;;;;20.38;59.01;102011.06;7296112;19;153210;-54
2022/05/27 03:15:28;;;;;;;;;;;;;;;20.41;59.01;102005.72;7298418;19;152155;-54
2022/05/27 03:18:07;;;;;;;;;;;;;;;20.34;59.46;102001.50;7303663;19;153762;-53
2022/05/27 03:20:34;;;;;;;;;;;;;;;20.31;59.37;102002.06;7296137;19;151944;-53
2022/05/27 03:23:01;;;;;;;;;;;;;;;20.32;59.71;102006.56;7300394;19;152776;-53
2022/05/27 03:25:42;;;;;;;;;;;;;;;20.38;59.52;102008.25;7297054;19;153953;-53
2022/05/27 03:28:10;;;;;;;;;;;;;;;20.36;59.69;102005.72;7295350;19;151816;-54
2022/05/27 03:30:45;;;;;;;;;;;;;;;20.44;59.21;102001.50;7288101;19;153713;-53
2022/05/27 03:33:24;;;;;;;;;;;;;;;20.40;59.35;102000.38;7289678;19;153543;-53
2022/05/27 03:35:53;;;;;;;;;;;;;;;20.45;59.37;102010.75;7291258;19;151809;-54
2022/05/27 03:38:26;;;;;;;;;;;;;;;20.37;59.53;102006.56;7289797;19;152606;-53
2022/05/27 03:41:01;;;;;;;;;;;;;;;20.35;59.25;102006.00;7296265;19;151670;-54
2022/05/27 03:43:29;;;;;;;;;;;;;;;20.37;59.68;102009.38;7290529;19;153694;-53
2022/05/27 03:45:57;;;;;;;;;;;;;;;20.34;59.67;102012.75;7286944;19;153945;-54
2022/05/27 03:48:25;;;;;;;;;;;;;;;20.35;59.40;102009.63;7290464;19;151778;-53
2022/05/27 03:50:55;;;;;;;;;;;;;;;20.35;59.34;102012.44;7290362;19;152791;-54
2022/05/27 03:54:03;;;;;;;;;;;;;;;20.32;59.21;102013.00;7287792;19;153603;-54
2022/05/27 03:56:09;;;;;;;;;;;;;;;20.35;59.31;102017.25;7290211;19;151935;-53
2022/05/27 03:58:36;;;;;;;;;;;;;;;20.35;59.31;102014.44;7290078;19;154065;-54
2022/05/27 04:01:02;;;;;;;;;;;;;;;20.36;59.85;102025.34;7294766;19;153288;-53
2022/05/27 04:03:29;;;;;;;;;;;;;;;20.39;59.55;102026.78;7289162;19;153758;-53
2022/05/27 04:05:56;;;;;;;;;;;;;;;20.30;60.10;102034.06;7289257;19;153413;-54
2022/05/27 04:08:22;;;;;;;;;;;;;;;20.30;59.98;102037.72;7288003;19;151733;-53
2022/05/27 04:10:49;;;;;;;;;;;;;;;20.32;59.96;102037.44;7289220;19;153543;-53
2022/05/27 04:13:16;;;;;;;;;;;;;;;20.31;60.46;102050.63;7287610;19;154313;-54
2022/05/27 04:15:43;;;;;;;;;;;;;;;20.27;59.96;102043.00;7288915;19;151729;-53
2022/05/27 04:18:10;;;;;;;;;;;;;;;20.29;60.14;102040.78;7288734;19;153525;-54
2022/05/27 04:20:36;;;;;;;;;;;;;;;20.31;59.88;102038.53;7285309;19;154665;-53
2022/05/27 04:23:03;;;;;;;;;;;;;;;20.30;60.40;102042.50;7296443;19;151874;-53
2022/05/27 04:25:30;;;;;;;;;;;;;;;20.30;60.06;102045.31;7286848;19;154140;-52
2022/05/27 04:27:57;;;;;;;;;;;;;;;20.25;60.45;102040.50;7289171;19;152012;-53
2022/05/27 04:30:24;;;;;;;;;;;;;;;20.25;60.25;102039.66;7286223;19;153997;-53
2022/05/27 04:32:51;;;;;;;;;;;;;;;20.25;60.03;102046.09;7287544;19;153434;-53
2022/05/27 04:35:18;;;;;;;;;;;;;;;20.24;60.61;102052.00;7288564;19;152238;-54
2022/05/27 04:37:45;;;;;;;;;;;;;;;20.24;60.42;102044.41;7287310;19;152638;-53
2022/05/27 04:40:12;;;;;;;;;;;;;;;20.25;60.68;102056.50;7287353;19;153338;-53
2022/05/27 04:42:38;;;;;;;;;;;;;;;20.24;60.83;102061.25;7284805;19;152096;-53
2022/05/27 04:45:06;;;;;;;;;;;;;;;20.24;60.76;102057.59;7293568;19;152762;-53
2022/05/27 04:47:33;;;;;;;;;;;;;;;20.24;60.80;102069.69;7287857;19;152519;-54
2022/05/27 04:50:00;;;;;;;;;;;;;;;20.27;60.94;102066.28;7286334;19;153218;-53
2022/05/27 04:52:29;;;;;;;;;;;;;;;20.28;60.70;102070.78;7286250;19;154042;-54
2022/05/27 04:54:57;;;;;;;;;;;;;;;20.25;60.77;102074.19;7288393;19;151995;-54
2022/05/27 04:57:28;;;;;;;;;;;;;;;20.28;60.82;102072.75;7287814;19;152911;-53
2022/05/27 04:59:54;;;;;;;;;;;;;;;20.29;60.81;102080.06;7286193;19;153968;-53
2022/05/27 05:02:21;;;;;;;;;;;;;;;20.26;60.92;102073.03;7284936;19;152025;-53
2022/05/27 05:04:49;;;;;;;;;;;;;;;20.27;60.41;102071.06;7287070;19;153541;-54
2022/05/27 05:07:19;;;;;;;;;;;;;;;20.26;60.32;102077.81;7292318;19;153776;-53
2022/05/27 05:09:45;;;;;;;;;;;;;;;20.25;60.32;102074.19;7287033;19;153302;-53
2022/05/27 05:12:12;;;;;;;;;;;;;;;20.25;60.43;102074.19;7286883;19;153391;-54
2022/05/27 05:14:39;;;;;;;;;;;;;;;20.25;60.35;102078.94;7285586;19;151839;-54
2022/05/27 05:17:06;;;;;;;;;;;;;;;20.25;60.38;102082.59;7285548;19;153639;-54
2022/05/27 05:19:34;;;;;;;;;;;;;;;20.22;60.40;102088.75;7284451;19;153981;-54
2022/05/27 05:22:01;;;;;;;;;;;;;;;20.25;60.63;102084.56;7283522;19;153500;-53
2022/05/27 05:24:28;;;;;;;;;;;;;;;20.26;60.35;102081.44;7284364;19;153558;-52
2022/05/27 05:26:55;;;;;;;;;;;;;;;20.26;60.20;102091.84;7286842;19;153181;-53
2022/05/27 05:29:22;;;;;;;;;;;;;;;20.27;60.44;102093.53;7294209;19;151810;-53
2022/05/27 05:31:48;;;;;;;;;;;;;;;20.29;60.57;102096.91;7286372;19;153502;-54
2022/05/27 05:34:16;;;;;;;;;;;;;;;20.26;60.55;102103.91;7286284;19;151917;-54
2022/05/27 05:36:43;;;;;;;;;;;;;;;20.25;60.72;102101.41;7287454;19;154268;-54
2022/05/27 05:39:10;;;;;;;;;;;;;;;20.25;60.42;102098.59;7283679;19;153993;-54
2022/05/27 05:41:38;;;;;;;;;;;;;;;20.26;60.87;102101.09;7285085;19;152533;-54
2022/05/27 05:44:06;;;;;;;;;;;;;;;20.31;60.29;102098.31;7284072;19;152540;-54
2022/05/27 05:46:35;;;;;;;;;;;;;;;20.26;60.29;102098.28;7286441;19;153782;-53
2022/05/27 05:49:03;;;;;;;;;;;;;;;20.25;60.11;102105.03;7291285;19;151905;-54
2022/05/27 05:51:29;;;;;;;;;;;;;;;20.28;59.92;102117.66;7284036;19;153511;-54
2022/05/27 05:53:57;;;;;;;;;;;;;;;20.28;60.14;102110.09;7285201;19;151822;-54
2022/05/27 05:56:23;;;;;;;;;;;;;;;20.29;60.26;102110.94;7284889;19;152798;-53
2022/05/27 05:58:51;;;;;;;;;;;;;;;20.35;60.28;102118.28;7284223;19;154035;-54
2022/05/27 06:01:18;;;;;;;;;;;;;;;20.36;59.99;102109.56;7283205;19;152829;-54
2022/05/27 06:03:45;;;;;;;;;;;;;;;20.38;60.43;102118.56;7286742;19;153660;-54
2022/05/27 06:06:12;;;;;;;;;;;;;;;20.40;60.52;102116.31;7285981;19;153753;-54
2022/05/27 06:08:39;;;;;;;;;;;;;;;20.44;61.05;102116.63;7286700;19;151910;-52
2022/05/27 06:11:07;;;;;;;;;;;;;;;20.50;61.51;102121.09;7291966;19;153518;-53
2022/05/27 06:13:36;;;;;;;;;;;;;;;20.56;61.83;102125.59;7286655;19;151859;-53
2022/05/27 06:16:03;;;;;;;;;;;;;;;20.64;61.81;102124.19;7285535;19;152875;-54
2022/05/27 06:18:30;;;;;;;;;;;;;;;20.73;61.28;102133.72;7285046;19;154176;-54
2022/05/27 06:20:58;;;;;;;;;;;;;;;20.83;60.78;102136.53;7285720;19;152349;-53
2022/05/27 06:23:28;;;;;;;;;;;;;;;20.90;60.92;102133.44;7282435;19;153961;-54
2022/05/27 06:26:00;;;;;;;;;;;;;;;20.96;60.37;102138.78;7284388;19;154162;-53
2022/05/27 06:36:35;;;;;;;;;;;;;;;21.34;57.27;102148.59;7283763;19;152764;-54
2022/05/27 06:39:03;;;;;;;;;;;;;;;21.30;56.17;102156.72;7283448;19;153489;-54
2022/05/27 06:41:30;;;;;;;;;;;;;;;21.35;55.23;102155.88;7283172;19;151557;-54
2022/05/27 06:43:56;;;;;;;;;;;;;;;21.40;54.45;102163.47;7284220;19;153280;-54
2022/05/27 06:46:23;;;;;;;;;;;;;;;21.40;52.87;102163.47;7284305;19;154197;-53
2022/05/27 06:48:50;;;;;;;;;;;;;;;21.33;49.90;102158.16;7285100;19;151626;-54
2022/05/27 06:51:18;;;;;;;;;;;;;;;21.35;50.88;102161.50;7284957;19;153796;-54
2022/05/27 06:53:46;;;;;;;;;;;;;;;21.34;50.25;102159.00;7281064;19;153372;-53
2022/05/27 06:56:13;;;;;;;;;;;;;;;21.26;49.04;102161.25;7292100;19;151749;-54
2022/05/27 06:58:40;;;;;;;;;;;;;;;21.13;47.93;102166.59;7282278;19;154127;-53
2022/05/27 07:01:10;;;;;;;;;;;;;;;21.20;47.08;102165.22;7283444;19;152252;-54
2022/05/27 07:03:37;;;;;;;;;;;;;;;21.24;47.71;102168.28;7281239;19;152784;-54
2022/05/27 07:06:05;;;;;;;;;;;;;;;21.24;47.35;102171.94;7290331;19;153216;-53
2022/05/27 07:08:31;;;;;;;;;;;;;;;21.27;48.29;102177.00;7289462;19;151818;-54
2022/05/27 07:10:58;;;;;;;;;;;;;;;21.34;48.73;102176.72;7290374;19;153498;-53
2022/05/27 07:13:25;;;;;;;;;;;;;;;21.36;49.59;102173.59;7289032;19;154573;-54
2022/05/27 07:15:51;;;;;;;;;;;;;;;21.46;50.03;102176.38;7290278;19;151737;-54
2022/05/27 07:18:19;;;;;;;;;;;;;;;21.49;50.39;102173.84;7296984;19;152946;-53
2022/05/27 07:20:45;;;;;;;;;;;;;;;21.46;50.32;102174.41;7290565;19;152401;-53
2022/05/27 07:23:12;;;;;;;;;;;;;;;21.54;50.80;102187.06;7288396;19;153480;-54
2022/05/27 07:25:40;;;;;;;;;;;;;;;21.53;50.69;102185.38;7289440;19;153250;-54
2022/05/27 07:28:07;;;;;;;;;;;;;;;21.51;50.38;102187.63;7289620;19;151828;-53
2022/05/27 07:30:35;;;;;;;;;;;;;;;21.52;50.83;102192.13;7268511;19;153979;-53
2022/05/27 07:33:02;;;;;;;;;;;;;;;21.53;50.60;102188.19;7284643;19;153476;-53
2022/05/27 07:35:29;;;;;;;;;;;;;;;21.53;50.60;102186.19;7286105;19;152173;-55
2022/05/27 07:37:57;;;;;;;;;;;;;;;21.54;50.50;102190.72;7286005;19;153425;-54
2022/05/27 07:40:25;;;;;;;;;;;;;;;21.53;50.48;102186.19;7292099;19;152528;-54
2022/05/27 07:42:53;;;;;;;;;;;;;;;21.55;50.56;102191.56;7285224;19;152724;-53
2022/05/27 07:45:26;;;;;;;;;;;;;;;21.55;50.53;102195.22;7286417;19;153436;-54
2022/05/27 07:47:55;;;;;;;;;;;;;;;21.55;50.81;102195.22;7284819;19;152221;-54
2022/05/27 07:50:23;;;;;;;;;;;;;;;21.55;50.29;102194.38;7287410;19;153299;-53
2022/05/27 07:52:50;;;;;;;;;;;;;;;21.54;50.66;102193.53;7285898;19;154172;-52
2022/05/27 07:55:16;;;;;;;;;;;;;;;21.56;50.64;102191.28;7286408;19;152075;-53
2022/05/27 07:57:44;;;;;;;;;;;;;;;21.58;50.64;102193.78;7285827;19;153612;-53
2022/05/27 08:00:22;;;;;;;;;;;;;;;21.56;50.62;102196.06;7291100;19;153435;-54
2022/05/27 08:02:48;;;;;;;;;;;;;;;21.55;50.54;102197.19;7286057;19;152709;-54
2022/05/27 08:05:17;;;;;;;;;;;;;;;21.54;50.22;102204.78;7285411;19;153904;-54
2022/05/27 08:07:44;;;;;;;;;;;;;;;21.54;50.19;102203.91;7286998;19;152273;-54
2022/05/27 08:10:11;;;;;;;;;;;;;;;21.51;50.04;102201.69;7287430;19;153500;-53
2022/05/27 08:12:39;;;;;;;;;;;;;;;21.50;50.37;102195.22;7288041;19;153419;-54
2022/05/27 08:15:10;;;;;;;;;;;;;;;21.49;50.20;102204.78;7288155;19;151598;-53
2022/05/27 08:17:37;;;;;;;;;;;;;;;21.49;50.44;102201.97;7286083;19;153352;-53
2022/05/27 08:20:04;;;;;;;;;;;;;;;21.49;50.15;102209.56;7288048;19;154910;-53
2022/05/27 08:22:31;;;;;;;;;;;;;;;21.50;49.87;102219.69;7294716;19;151980;-53
2022/05/27 08:24:58;;;;;;;;;;;;;;;21.49;50.48;102206.75;7287412;19;153525;-54
2022/05/27 08:27:26;;;;;;;;;;;;;;;21.49;50.31;102224.47;7287241;19;151762;-52
2022/05/27 08:29:53;;;;;;;;;;;;;;;21.50;50.14;102228.13;7286387;19;153488;-54
2022/05/27 08:32:20;;;;;;;;;;;;;;;21.47;50.00;102229.53;7287408;19;154664;-54
2022/05/27 08:40:35;;;;;;;;;;;;;;;21.46;49.88;102229.81;7286216;19;152503;-53
2022/05/27 08:43:05;;;;;;;;;;;;;;;21.43;50.19;102228.44;7287237;19;152149;-54
2022/05/27 08:45:38;;;;;;;;;;;;;;;21.41;50.03;102239.09;7292545;19;152657;-53
2022/05/27 08:48:06;;;;;;;;;;;;;;;21.44;49.87;102234.91;7287384;19;152160;-53
2022/05/27 08:50:38;;;;;;;;;;;;;;;21.43;49.69;102238.84;7288653;19;153127;-54
2022/05/27 08:53:08;;;;;;;;;;;;;;;21.40;49.84;102242.19;7284579;19;153619;-53
2022/05/27 09:01:22;;;;;;;;;;;;;;;21.40;49.55;102236.56;7284269;19;153918;-55
2022/05/27 09:03:54;;;;;;;;;;;;;;;21.36;49.17;102239.09;7284604;19;151973;-53
2022/05/27 09:06:27;;;;;;;;;;;;;;;21.37;49.21;102245.56;7286693;19;154448;-54
2022/05/27 09:08:58;;;;;;;;;;;;;;;21.37;49.72;102242.75;7292638;19;153173;-53
2022/05/27 09:11:33;;;;;;;;;;;;;;;21.39;49.46;102246.16;7286635;19;153228;-53
2022/05/27 09:14:07;;;;;;;;;;;;;;;21.42;49.22;102245.56;7265819;19;153188;-54
2022/05/27 09:16:39;;;;;;;;;;;;;;;21.40;49.61;102254.28;7277568;19;152324;-53
2022/05/27 09:19:44;;;;;;;;;;;;;;;21.46;48.88;102253.16;7285971;19;154764;-53
2022/05/27 09:22:13;;;;;;;;;;;;;;;21.41;49.56;102243.88;7286104;19;153345;-54
2022/05/27 09:24:41;;;;;;;;;;;;;;;21.37;48.82;102254.84;7283285;19;152994;-54
2022/05/27 09:27:10;;;;;;;;;;;;;;;21.35;49.29;102240.22;7283061;19;152543;-53
2022/05/27 09:29:39;;;;;;;;;;;;;;;21.37;49.09;102251.19;7284115;19;152581;-54
2022/05/27 09:32:20;;;;;;;;;;;;;;;21.41;49.08;102249.50;7293869;19;151891;-54
2022/05/27 09:34:48;;;;;;;;;;;;;;;21.44;48.77;102249.78;7282228;19;154599;-53
2022/05/27 09:37:21;;;;;;;;;;;;;;;21.49;48.35;102248.94;7285791;19;152064;-54
2022/05/27 09:39:48;;;;;;;;;;;;;;;21.50;47.74;102254.28;7285162;19;152886;-54
2022/05/27 09:42:19;;;;;;;;;;;;;;;21.50;48.09;102237.41;7284431;19;153648;-53
2022/05/27 09:44:53;;;;;;;;;;;;;;;21.51;47.92;102244.72;7284937;19;152051;-54
2022/05/27 09:47:22;;;;;;;;;;;;;;;21.53;48.10;102241.63;7283565;19;153451;-53
2022/05/27 09:49:53;;;;;;;;;;;;;;;21.51;48.49;102252.31;7282499;19;154616;-54
2022/05/27 09:52:23;;;;;;;;;;;;;;;21.52;48.12;102249.22;7285747;19;151618;-54
2022/05/27 09:54:52;;;;;;;;;;;;;;;21.55;47.69;102251.47;7290550;19;153571;-54
2022/05/27 09:57:23;;;;;;;;;;;;;;;21.53;47.95;102248.06;7285409;19;151873;-54
2022/05/27 09:59:54;;;;;;;;;;;;;;;21.52;48.21;102251.19;7283548;19;152189;-54
2022/05/27 10:02:22;;;;;;;;;;;;;;;21.56;47.48;102249.50;7280201;19;154464;-53
2022/05/27 10:04:53;;;;;;;;;;;;;;;21.49;47.79;102257.34;7280911;19;152725;-54
2022/05/27 10:07:23;;;;;;;;;;;;;;;21.54;47.30;102257.34;7284643;19;152262;-54
2022/05/27 10:09:51;;;;;;;;;;;;;;;21.56;47.47;102253.16;7282131;19;153405;-54
2022/05/27 10:12:28;;;;;;;;;;;;;;;21.59;47.89;102255.38;7283603;19;151750;-54
2022/05/27 10:14:56;;;;;;;;;;;;;;;21.62;47.65;102254.81;7289729;19;152932;-54
2022/05/27 10:17:35;;;;;;;;;;;;;;;21.58;47.61;102253.69;7285516;19;151791;-54
2022/05/27 10:20:12;;;;;;;;;;;;;;;21.60;47.14;102253.41;7284819;19;152850;-54
2022/05/27 10:22:39;;;;;;;;;;;;;;;21.64;46.77;102254.53;7284008;19;153815;-54
2022/05/27 10:25:08;;;;;;;;;;;;;;;21.66;46.92;102252.28;7284526;19;151725;-54
2022/05/27 10:27:36;;;;;;;;;;;;;;;21.67;47.28;102251.13;7284785;19;151697;-54
2022/05/27 10:30:08;;;;;;;;;;;;;;;21.70;47.03;102240.19;7282164;19;152707;-54
2022/05/27 10:32:38;;;;;;;;;;;;;;;21.71;47.50;102246.66;7284219;19;152090;-53
2022/05/27 10:35:09;;;;;;;;;;;;;;;21.72;47.06;102240.72;7283504;19;152933;-53
2022/05/27 10:37:46;;;;;;;;;;;;;;;21.73;46.85;102245.22;7289562;19;153060;-53
2022/05/27 10:40:22;;;;;;;;;;;;;;;21.73;46.69;102238.75;7286972;19;151988;-53
2022/05/27 10:42:49;;;;;;;;;;;;;;;21.76;46.84;102237.38;7288155;19;153292;-53
2022/05/27 10:45:17;;;;;;;;;;;;;;;21.77;46.62;102227.78;7289758;19;151852;-54
2022/05/27 10:47:54;;;;;;;;;;;;;;;21.78;46.90;102235.09;7291482;19;152953;-54
2022/05/27 10:50:21;;;;;;;;;;;;;;;21.78;46.73;102235.94;7289769;19;153643;-53
2022/05/27 10:52:58;;;;;;;;;;;;;;;21.82;46.11;102239.00;7291322;19;151881;-53
2022/05/27 10:55:34;;;;;;;;;;;;;;;21.80;46.64;102235.66;7289271;19;153889;-53
2022/05/27 11:03:24;;;;;;;;;;;;;;;21.84;46.50;102231.16;7288634;19;152441;-54
2022/05/27 11:05:54;;;;;;;;;;;;;;;21.85;46.43;102235.66;7290580;19;152200;-53
2022/05/27 11:08:24;;;;;;;;;;;;;;;21.84;46.52;102233.97;7290775;19;153321;-54
2022/05/27 11:10:52;;;;;;;;;;;;;;;21.84;46.41;102237.63;7288820;19;152691;-54
2022/05/27 11:16:12;;;;;;;;;;;;;;;21.84;46.87;102232.00;7287355;19;153615;-53
2022/05/27 11:18:41;;;;;;;;;;;;;;;21.87;46.70;102224.94;7288637;19;153386;-54
2022/05/27 11:21:08;;;;;;;;;;;;;;;21.85;46.97;102228.03;7290444;19;151915;-54
2022/05/27 11:23:44;;;;;;;;;;;;;;;21.85;46.85;102228.03;7294504;19;152821;-54
2022/05/27 11:26:17;;;;;;;;;;;;;;;21.88;46.79;102216.22;7289869;19;151687;-54
2022/05/27 11:28:53;;;;;;;;;;;;;;;21.86;46.70;102217.63;7289389;19;152557;-53
2022/05/27 11:33:54;;;;;;;;;;;;;;;21.89;46.75;102219.88;7289540;19;151764;-54
2022/05/27 11:36:28;;;;;;;;;;;;;;;21.87;46.48;102211.72;7287416;19;153178;-54
2022/05/27 11:39:14;;;;;;;;;;;;;;;21.86;46.23;102226.06;7288196;19;154042;-54
2022/05/27 11:41:42;;;;;;;;;;;;;;;21.86;46.52;102226.91;7288122;19;151936;-54
2022/05/27 11:44:18;;;;;;;;;;;;;;;21.83;46.65;102224.66;7288407;19;153705;-54
2022/05/27 11:46:51;;;;;;;;;;;;;;;21.85;46.64;102218.78;7295667;19;154049;-54
2022/05/27 11:49:35;;;;;;;;;;;;;;;21.85;46.63;102221.59;7287416;19;152663;-53
2022/05/27 11:52:21;;;;;;;;;;;;;;;21.88;46.18;102227.47;7285515;19;153596;-53
2022/05/27 11:55:11;;;;;;;;;;;;;;;21.86;45.97;102226.06;7289297;19;151530;-54
2022/05/27 11:57:44;;;;;;;;;;;;;;;21.85;46.30;102221.59;7288474;19;154184;-54
2022/05/27 12:00:13;;;;;;;;;;;;;;;21.85;46.10;102213.97;7287894;19;153786;-54
2022/05/27 12:02:43;;;;;;;;;;;;;;;21.85;46.47;102219.59;7287426;19;151843;-53
2022/05/27 12:05:11;;;;;;;;;;;;;;;21.85;46.15;102225.22;7287642;19;154074;-54
2022/05/27 12:07:48;;;;;;;;;;;;;;;21.87;46.10;102227.75;7287682;19;153738;-53
2022/05/27 12:10:24;;;;;;;;;;;;;;;21.85;46.19;102227.22;7294977;19;151962;-54
2022/05/27 12:13:12;;;;;;;;;;;;;;;21.85;46.37;102224.41;7285936;19;153275;-54
2022/05/27 12:15:46;;;;;;;;;;;;;;;21.84;46.10;102212.28;7287046;19;152094;-54
2022/05/27 12:18:18;;;;;;;;;;;;;;;21.83;46.27;102223.81;7288690;19;153722;-54
2022/05/27 12:20:45;;;;;;;;;;;;;;;21.84;46.26;102220.75;7288256;19;153308;-53
2022/05/27 12:23:12;;;;;;;;;;;;;;;21.83;46.43;102223.81;7287579;19;152588;-53
2022/05/27 12:25:43;;;;;;;;;;;;;;;21.82;46.05;102219.31;7286821;19;152929;-53
2022/05/27 12:28:10;;;;;;;;;;;;;;;21.80;46.63;102213.16;7285025;19;153641;-53
2022/05/27 12:30:40;;;;;;;;;;;;;;;21.80;46.53;102219.63;7296302;19;152157;-53
2022/05/27 12:33:14;;;;;;;;;;;;;;;21.80;46.72;102227.22;7285137;19;155464;-53
2022/05/27 12:36:02;;;;;;;;;;;;;;;21.78;46.31;102221.88;7288692;19;152374;-53
2022/05/27 12:38:34;;;;;;;;;;;;;;;21.77;46.09;102225.81;7287396;19;153346;-54
2022/05/27 12:41:08;;;;;;;;;;;;;;;21.76;45.84;102229.75;7287254;19;153961;-53
2022/05/27 12:43:37;;;;;;;;;;;;;;;21.75;46.19;102219.63;7287777;19;152094;-54
2022/05/27 12:46:04;;;;;;;;;;;;;;;21.74;46.29;102220.75;7286328;19;152702;-53
2022/05/27 12:48:32;;;;;;;;;;;;;;;21.73;46.18;102225.53;7285551;19;153478;-54
2022/05/27 12:51:06;;;;;;;;;;;;;;;21.73;46.18;102207.81;7288759;19;151822;-54
2022/05/27 12:53:37;;;;;;;;;;;;;;;21.73;46.46;102219.91;7291527;19;153385;-54
2022/05/27 13:01:36;;;;;;;;;;;;;;;21.70;45.53;102222.47;7269002;19;157900;-55
2022/05/27 13:04:04;;;;;;;;;;;;;;;21.71;46.31;102212.91;7274625;19;152696;-53
2022/05/27 13:06:30;;;;;;;;;;;;;;;21.70;45.97;102208.41;7284732;19;153066;-53
2022/05/27 13:09:00;;;;;;;;;;;;;;;21.69;46.05;102210.38;7283908;19;153258;-54
2022/05/27 13:11:34;;;;;;;;;;;;;;;21.69;45.83;102209.53;7286535;19;152520;-54
2022/05/27 13:14:04;;;;;;;;;;;;;;;21.69;45.93;102212.34;7285443;19;153780;-53
2022/05/27 13:16:51;;;;;;;;;;;;;;;21.67;45.84;102209.78;7292527;19;153523;-53
2022/05/27 13:19:22;;;;;;;;;;;;;;;21.67;46.22;102212.59;7283195;19;152952;-53
2022/05/27 13:21:52;;;;;;;;;;;;;;;21.67;46.17;102220.19;7281551;19;155073;-54